• Join FlightAware (Why Join?)
  • Login
  • US Flag 
05:26AM EDT


 

Airport Tracker/Info


-or-


 

Live Flight TrackerFlight Track Log ✈ ASQ4492 ✈ 18-Apr-2013 ✈ KIAH - KIAH

Flight Track Log - Related Links

Times and Time Zones

All times are in EDT time to prevent confusion due to time zone crossing. See the ASQ4492 flight status page for this flight to view local times or setup timezone preferences in your user account.

Time Position Orientation Groundspeed Altitude Reporting Facility
EDT Latitude Longitude Course Direction KTS MPH feet Rate Location/Type
12:57AM 29.9775 -95.3319 214° Southwest 152 175 500  Level Houston Center
12:57AM 29.9403 -95.3606 214° Southwest 246 283 2,200 1,860 Climbing Houston Center
12:58AM 29.8986 -95.2981 128° Southeast 265 305 4,100 2,040 Climbing Houston Center
01:00AM 29.8622 -95.2211 119° Southeast 275 316 6,700 2,460 Climbing Houston Center
01:01AM 29.8650 -95.1375 88° East 277 319 9,500 1,920 Climbing Houston Center
01:02AM 29.8931 -95.0511 69° East 287 330 10,600 960 Climbing Houston Center
01:03AM 29.9081 -94.9381 81° East 344 396 11,500 1,140 Climbing Houston Center
01:04AM 29.9253 -94.8167 81° East 372 428 13,000 1,440 Climbing Houston Center
01:05AM 29.9433 -94.6919 80° East 388 447 14,500 1,440 Climbing Houston Center
01:06AM 29.9642 -94.5400 81° East 397 457 16,000 1,200 Climbing Houston Center
01:07AM 29.9825 -94.4083 81° East 412 474 17,000 900 Climbing Houston Center
01:08AM 29.9997 -94.2722 82° East 425 489 17,900 960 Climbing Houston Center
01:09AM 30.0183 -94.1317 81° East 438 504 19,000 960 Climbing Houston Center
01:11AM 30.0333 -93.9175 85° East  Level FlightAware Approximate
01:12AM 30.0711 -93.6958 85° East 461 531 22,000  Level Houston Center
01:13AM 30.0908 -93.5475 81° East 464 534 22,900 480 Climbing Houston Center
01:14AM 30.1025 -93.4114 84° East 474 545 23,000  Climbing Houston Center
01:15AM 30.1200 -93.2606 82° East 478 550 23,000  Level Houston Center
01:16AM 30.1456 -93.0800 81° East 477 549 23,000  Level Houston Center
01:17AM 30.1731 -92.9292 78° East 481 554 23,000  Level Houston Center
01:18AM 30.2025 -92.7844 77° East 471 542 23,000  Level Houston Center
01:19AM 30.2314 -92.6431 77° East 458 527 23,000  Level Houston Center
01:20AM 30.2578 -92.5047 78° East 446 513 23,000  Level Houston Center
01:21AM 30.2844 -92.3675 77° East 442 509 23,000  Level Houston Center
01:22AM 30.3092 -92.2322 78° East 434 499 23,000  Level Houston Center
01:23AM 30.3358 -92.0983 77° East 431 496 23,000  Level Houston Center
01:24AM 30.3606 -91.9669 78° East 423 487 23,000  Level Houston Center
01:25AM 30.3842 -91.8375 78° East 415 478 23,000  Level Houston Center
01:26AM 30.4072 -91.7200 77° East 410 472 23,000  Level Houston Center
01:27AM 30.4303 -91.6008 77° East 383 441 23,000  Level Houston Center
01:28AM 30.4503 -91.4861 79° East 367 422 23,000  Level Houston Center
01:29AM 30.4533 -91.3767 88° East 357 411 23,000  Level Houston Center
01:30AM 30.3889 -91.3731 177° South 273 314 23,000  Level Houston Center
01:31AM 30.3831 -91.4542 265° West 255 293 23,000  Level Houston Center
01:32AM 30.3744 -91.5650 265° West 286 329 23,000  Level Houston Center
01:33AM 30.3644 -91.6614 263° West 300 345 23,000  Level Houston Center
01:34AM 30.3575 -91.7478 265° West 305 351 23,000  Level Houston Center
01:35AM 30.3475 -91.8481 263° West 312 359 23,000  Level Houston Center
01:36AM 30.3383 -91.9442 264° West 303 349 23,000  Level Houston Center
01:37AM 30.3292 -92.0378 264° West 294 338 23,000  Level Houston Center
01:38AM 30.3197 -92.1319 263° West 294 338 23,000  Level Houston Center
01:39AM 30.3097 -92.2317 263° West 308 354 23,000  Level Houston Center
01:40AM 30.3000 -92.3258 263° West 299 344 23,000  Level Houston Center
01:41AM 30.2900 -92.4156 263° West 285 328 23,000  Level Houston Center
01:42AM 30.2811 -92.5061 264° West 283 326 23,000  Level Houston Center
01:43AM 30.2714 -92.5972 263° West 286 329 23,000  Level Houston Center
01:44AM 30.2619 -92.6886 263° West 286 329 23,000  Level Houston Center
01:45AM 30.2508 -92.7825 262° West 293 337 23,000  Level Houston Center
01:46AM 30.2411 -92.8811 264° West 305 351 23,000  Level Houston Center
01:47AM 30.2303 -92.9783 263° West 305 351 23,000  Level Houston Center
01:48AM 30.2189 -93.0756 262° West 305 351 23,000  Level Houston Center
01:49AM 30.2078 -93.1786 263° West 319 367 23,000  Level Houston Center
01:50AM 30.1964 -93.2808 263° West 321 369 23,000  Level Houston Center
01:51AM 30.1847 -93.3856 263° West 327 376 23,000  Level Houston Center
01:52AM 30.1728 -93.4922 263° West 332 382 23,000  Level Houston Center
01:53AM 30.1583 -93.6147 262° West 346 398 23,000  Level Houston Center
01:54AM 30.1461 -93.7242 263° West 345 397 23,000 -600 Level Houston Center
01:55AM 30.1339 -93.8317 263° West 339 390 21,900 -1,380 Descending Houston Center
01:55AM 30.1283 -93.8778 262° West 336 387 21,100 -1,800 Descending Houston Center
01:56AM 30.1217 -93.9342 262° West 327 376 20,100 -1,980 Descending Houston Center
01:56AM 30.1172 -93.9761 263° West 319 367 19,300 -1,920 Descending Houston Center
01:57AM 30.1100 -94.0386 262° West 326 375 18,200 -1,920 Descending Houston Center
01:57AM 30.1047 -94.0794 262° West 334 384 17,400 -1,920 Descending Houston Center
01:58AM 30.0978 -94.1433 263° West 329 379 16,300 -1,920 Descending Houston Center
01:59AM 30.0819 -94.2733 262° West 307 353 13,800 -1,920 Descending Houston Center
02:00AM 30.0742 -94.3386 262° West 310 357 12,500 -1,560 Descending Houston Center
02:01AM 30.0631 -94.4367 263° West 309 356 11,000 -840 Descending Houston Center
02:02AM 30.0511 -94.5333 262° West 307 353 10,900 -600 Descending Houston Center
02:03AM 30.0408 -94.6222 262° West 295 339 9,900 -1,320 Descending Houston Center
02:04AM 30.0314 -94.6958 262° West 258 297 8,300 -1,860 Descending Houston Center
02:04AM 30.0272 -94.7225 260° West 233 268 7,600 -1,800 Descending Houston Center
02:05AM 30.0197 -94.7703 260° West 240 276 6,500 -1,500 Descending Houston Center
02:06AM 30.0047 -94.8394 256° West 233 268 5,000 -1,200 Descending Houston Center
02:06AM 29.9994 -94.8708 259° West 236 272 5,000  Level Houston Center
02:07AM 29.9928 -94.9139 260° West 235 270 5,000  Level Houston Center
02:07AM 29.9939 -94.9439 272° West 228 262 5,000  Level Houston Center
02:08AM 29.9942 -94.9869 270° West 232 267 5,000  Level Houston Center
02:08AM 29.9925 -95.0189 267° West 231 266 5,000 -300 Level Houston Center
02:09AM 29.9936 -95.0597 272° West 230 265 4,700 -900 Descending Houston Center
02:10AM 29.9939 -95.1317 270° West 227 261 3,500 -1,200 Descending Houston Center
02:11AM 29.9933 -95.1992 269° West 222 255 2,300 -1,020 Descending Houston Center
02:12AM 29.9947 -95.2472 272° West 182 209 1,500 -900 Descending Houston Center
02:13AM 29.9936 -95.2981 269° West 146 168 600 -600 Descending Houston Center
02:14AM 29.9922 -95.3386 268° West 141 162 300 -300 Descending Houston Center
02:16AM 29.9844 -95.3414 82° East  Level Estimated